createdAt,value
2023-02-27T00:00:13.878Z,1026.91
2023-02-27T00:01:12.793Z,1026.97
2023-02-27T00:02:14.023Z,1026.93
2023-02-27T00:03:12.986Z,1027.01
2023-02-27T00:04:13.002Z,1026.98
2023-02-27T00:05:13.601Z,1027.02
2023-02-27T00:06:13.567Z,1027.03
2023-02-27T00:07:13.556Z,1027.01
2023-02-27T00:08:13.642Z,1027.02
2023-02-27T00:09:13.645Z,1027.06
2023-02-27T00:10:14.713Z,1027.05
2023-02-27T00:11:13.815Z,1027.01
2023-02-27T00:12:13.778Z,1027.04
2023-02-27T00:13:14.139Z,1027.03
2023-02-27T00:14:12.979Z,1027.03
2023-02-27T00:15:12.937Z,1027.03
2023-02-27T00:16:18.029Z,1026.98
2023-02-27T00:17:12.921Z,1026.98
2023-02-27T00:18:12.861Z,1026.99
2023-02-27T00:19:14.081Z,1027.02
2023-02-27T00:20:13.155Z,1027.02
2023-02-27T00:21:13.085Z,1027.02
2023-02-27T00:22:13.081Z,1027.01
2023-02-27T00:23:13.205Z,1027.03
2023-02-27T00:24:13.241Z,1027.00
2023-02-27T00:25:13.371Z,1026.99
2023-02-27T00:26:13.350Z,1026.92
2023-02-27T00:27:13.504Z,1026.95
2023-02-27T00:28:13.688Z,1026.92
2023-02-27T00:29:13.874Z,1026.96
2023-02-27T00:30:13.794Z,1026.97
2023-02-27T00:31:14.048Z,1026.95
2023-02-27T00:32:13.065Z,1026.94
2023-02-27T00:33:13.079Z,1026.94
2023-02-27T00:34:13.509Z,1026.93
2023-02-27T00:35:13.733Z,1026.96
2023-02-27T00:36:13.910Z,1026.93
2023-02-27T00:37:13.240Z,1026.94
2023-02-27T00:38:13.713Z,1026.95
2023-02-27T00:39:13.726Z,1026.94
2023-02-27T00:40:13.598Z,1026.98
2023-02-27T00:41:13.962Z,1026.99
2023-02-27T00:42:12.927Z,1026.96
2023-02-27T00:43:12.996Z,1026.98
2023-02-27T00:44:12.991Z,1026.97
2023-02-27T00:45:13.183Z,1026.98
2023-02-27T00:46:13.383Z,1027.01
2023-02-27T00:47:13.827Z,1027.04
2023-02-27T00:48:13.834Z,1027.04
2023-02-27T00:49:13.844Z,1027.00
2023-02-27T00:50:13.989Z,1027.01
2023-02-27T00:51:12.958Z,1027.01
2023-02-27T00:52:12.950Z,1027.01
2023-02-27T00:53:12.787Z,1027.00
2023-02-27T00:54:13.892Z,1027.00
2023-02-27T00:55:13.108Z,1026.96
2023-02-27T00:56:13.357Z,1026.98
2023-02-27T00:57:13.434Z,1026.97
2023-02-27T00:58:13.707Z,1026.94
2023-02-27T00:59:13.522Z,1026.95
2023-02-27T01:00:13.732Z,1026.91
2023-02-27T01:01:13.803Z,1026.96
2023-02-27T01:02:13.962Z,1026.91
2023-02-27T01:03:12.963Z,1026.93
2023-02-27T01:04:12.864Z,1026.96
2023-02-27T01:05:13.813Z,1026.94
2023-02-27T01:06:13.842Z,1026.95
2023-02-27T01:07:12.953Z,1026.96
2023-02-27T01:08:12.959Z,1026.94
2023-02-27T01:09:12.931Z,1026.97
2023-02-27T01:10:12.885Z,1026.97
2023-02-27T01:11:13.853Z,1026.95
2023-02-27T01:12:14.292Z,1026.97
2023-02-27T01:13:13.340Z,1026.97
2023-02-27T01:14:13.574Z,1026.99
2023-02-27T01:15:13.613Z,1026.96
2023-02-27T01:16:13.645Z,1026.97
2023-02-27T01:17:13.957Z,1026.96
2023-02-27T01:18:12.895Z,1026.96
2023-02-27T01:19:13.871Z,1026.97
2023-02-27T01:20:13.858Z,1026.94
2023-02-27T01:21:14.015Z,1026.94
2023-02-27T01:22:12.969Z,1026.92
2023-02-27T01:23:13.106Z,1026.91
2023-02-27T01:24:13.312Z,1026.90
2023-02-27T01:25:13.432Z,1026.90
2023-02-27T01:26:13.460Z,1026.90
2023-02-27T01:27:13.622Z,1026.92
2023-02-27T01:28:13.653Z,1026.90
2023-02-27T01:29:13.620Z,1026.91
2023-02-27T01:30:13.680Z,1026.92
2023-02-27T01:31:13.857Z,1026.87
2023-02-27T01:32:13.007Z,1026.85
2023-02-27T01:33:13.069Z,1026.89
2023-02-27T01:34:12.995Z,1026.91
2023-02-27T01:35:13.169Z,1026.92
2023-02-27T01:36:14.533Z,1026.91
2023-02-27T01:37:13.671Z,1026.91
2023-02-27T01:38:13.887Z,1026.94
2023-02-27T01:39:13.018Z,1026.91
2023-02-27T01:40:12.917Z,1026.91
2023-02-27T01:41:12.825Z,1026.87
2023-02-27T01:42:14.174Z,1026.93
2023-02-27T01:43:13.414Z,1026.91
2023-02-27T01:44:13.586Z,1026.86
2023-02-27T01:45:13.501Z,1026.88
2023-02-27T01:46:13.411Z,1026.86
2023-02-27T01:47:13.396Z,1026.88
2023-02-27T01:48:13.312Z,1026.89
2023-02-27T01:49:13.281Z,1026.88
2023-02-27T01:50:13.491Z,1026.88
2023-02-27T01:51:13.859Z,1026.85
2023-02-27T01:52:12.958Z,1026.85
2023-02-27T01:53:13.363Z,1026.80
2023-02-27T01:54:13.462Z,1026.85
2023-02-27T01:55:13.505Z,1026.84
2023-02-27T01:56:13.682Z,1026.81
2023-02-27T01:57:41.452Z,1026.85
2023-02-27T01:58:13.489Z,1026.85
2023-02-27T01:59:13.540Z,1026.83
2023-02-27T02:00:13.500Z,1026.83
2023-02-27T02:01:13.531Z,1026.84
2023-02-27T02:02:13.498Z,1026.83
2023-02-27T02:03:13.625Z,1026.84
2023-02-27T02:04:13.928Z,1026.85
2023-02-27T02:05:12.908Z,1026.82
2023-02-27T02:06:12.873Z,1026.84
2023-02-27T02:07:13.159Z,1026.85
2023-02-27T02:08:13.078Z,1026.85
2023-02-27T02:09:13.154Z,1026.83
2023-02-27T02:10:13.142Z,1026.85
2023-02-27T02:11:13.099Z,1026.87
2023-02-27T02:12:13.005Z,1026.86
2023-02-27T02:13:13.137Z,1026.85
2023-02-27T02:14:13.029Z,1026.83
2023-02-27T02:15:13.069Z,1026.84
2023-02-27T02:16:13.237Z,1026.86
2023-02-27T02:17:13.361Z,1026.87
2023-02-27T02:18:13.411Z,1026.88
2023-02-27T02:19:13.479Z,1026.84
2023-02-27T02:20:13.581Z,1026.88
2023-02-27T02:21:13.494Z,1026.86
2023-02-27T02:22:13.442Z,1026.88
2023-02-27T02:23:13.423Z,1026.88
2023-02-27T02:24:13.383Z,1026.88
2023-02-27T02:25:13.647Z,1026.94
2023-02-27T02:26:13.569Z,1026.88
2023-02-27T02:27:13.747Z,1026.88
2023-02-27T02:28:13.684Z,1026.85
2023-02-27T02:29:13.743Z,1026.85
2023-02-27T02:30:13.711Z,1026.89
2023-02-27T02:31:14.251Z,1026.88
2023-02-27T02:32:13.276Z,1026.90
2023-02-27T02:33:13.380Z,1026.88
2023-02-27T02:34:13.507Z,1026.90
2023-02-27T02:35:13.497Z,1026.88
2023-02-27T02:36:13.644Z,1026.89
2023-02-27T02:37:13.521Z,1026.90
2023-02-27T02:38:13.458Z,1026.91
2023-02-27T02:39:13.642Z,1026.95
2023-02-27T02:40:13.708Z,1026.99
2023-02-27T02:41:13.860Z,1026.96
2023-02-27T02:42:14.090Z,1026.98
2023-02-27T02:43:13.046Z,1027.00
2023-02-27T02:44:12.948Z,1026.98
2023-02-27T02:45:12.909Z,1026.97
2023-02-27T02:46:12.853Z,1027.01
2023-02-27T02:47:14.054Z,1027.01
2023-02-27T02:48:13.085Z,1027.02
2023-02-27T02:49:13.241Z,1027.02
2023-02-27T02:50:13.327Z,1027.03
2023-02-27T02:51:13.461Z,1027.05
2023-02-27T02:52:13.482Z,1027.03
2023-02-27T02:53:13.552Z,1027.04
2023-02-27T02:54:13.685Z,1027.01
2023-02-27T02:55:13.930Z,1027.01
2023-02-27T02:56:13.166Z,1027.03
2023-02-27T02:57:13.001Z,1026.99
2023-02-27T02:58:13.027Z,1027.00
2023-02-27T02:59:13.083Z,1026.99
2023-02-27T03:00:13.486Z,1026.98
2023-02-27T03:01:13.505Z,1026.99
2023-02-27T03:02:14.102Z,1026.99
2023-02-27T03:03:12.992Z,1026.98
2023-02-27T03:04:13.350Z,1026.99
2023-02-27T03:05:13.520Z,1026.97
2023-02-27T03:06:13.708Z,1026.99
2023-02-27T03:07:14.094Z,1026.99
2023-02-27T03:08:13.083Z,1026.97
2023-02-27T03:09:13.129Z,1026.93
2023-02-27T03:10:13.487Z,1026.96
2023-02-27T03:11:13.914Z,1026.96
2023-02-27T03:12:12.854Z,1026.97
2023-02-27T03:13:13.880Z,1026.95
2023-02-27T03:14:13.819Z,1026.99
2023-02-27T03:15:13.717Z,1027.01
2023-02-27T03:16:13.664Z,1027.05
2023-02-27T03:17:13.671Z,1027.01
2023-02-27T03:18:13.676Z,1027.03
2023-02-27T03:19:13.645Z,1027.03
2023-02-27T03:20:18.785Z,1027.06
2023-02-27T03:21:13.758Z,1027.07
2023-02-27T03:22:14.054Z,1027.09
2023-02-27T03:23:13.003Z,1027.07
2023-02-27T03:24:12.982Z,1027.06
2023-02-27T03:25:17.944Z,1027.04
2023-02-27T03:26:12.908Z,1027.05
2023-02-27T03:27:17.866Z,1027.04
2023-02-27T03:28:13.853Z,1027.06
2023-02-27T03:29:13.762Z,1027.04
2023-02-27T03:30:13.754Z,1027.00
2023-02-27T03:31:14.143Z,1026.98
2023-02-27T03:32:13.309Z,1026.98
2023-02-27T03:33:13.207Z,1026.98
2023-02-27T03:34:13.276Z,1026.99
2023-02-27T03:35:13.339Z,1026.98
2023-02-27T03:36:13.302Z,1027.00
2023-02-27T03:37:13.275Z,1027.01
2023-02-27T03:38:13.367Z,1026.99
2023-02-27T03:39:13.250Z,1026.96
2023-02-27T03:40:13.166Z,1026.98
2023-02-27T03:41:13.128Z,1027.00
2023-02-27T03:42:13.093Z,1026.98
2023-02-27T03:43:13.207Z,1027.01
2023-02-27T03:44:13.526Z,1027.03
2023-02-27T03:45:13.763Z,1027.01
2023-02-27T03:46:14.181Z,1026.99
2023-02-27T03:47:13.386Z,1026.99
2023-02-27T03:48:13.338Z,1026.98
2023-02-27T03:49:13.614Z,1027.00
2023-02-27T03:50:13.743Z,1026.97
2023-02-27T03:51:13.707Z,1026.95
2023-02-27T03:52:14.015Z,1026.96
2023-02-27T03:53:12.975Z,1026.94
2023-02-27T03:54:12.945Z,1026.95
2023-02-27T03:55:13.014Z,1026.96
2023-02-27T03:56:12.896Z,1026.97
2023-02-27T03:57:13.376Z,1026.99
2023-02-27T03:58:13.309Z,1026.98
2023-02-27T03:59:13.270Z,1026.99
2023-02-27T04:00:13.327Z,1026.98
2023-02-27T04:01:13.385Z,1026.98
2023-02-27T04:02:13.408Z,1026.98
2023-02-27T04:03:13.719Z,1027.03
2023-02-27T04:04:14.500Z,1027.06
2023-02-27T04:05:13.469Z,1027.02
2023-02-27T04:06:13.878Z,1027.05
2023-02-27T04:07:14.029Z,1027.06
2023-02-27T04:08:13.283Z,1027.07
2023-02-27T04:09:13.474Z,1027.09
2023-02-27T04:10:13.385Z,1027.09
2023-02-27T04:11:13.576Z,1027.12
2023-02-27T04:12:13.501Z,1027.13
2023-02-27T04:13:13.443Z,1027.13
2023-02-27T04:14:13.614Z,1027.16
2023-02-27T04:15:13.615Z,1027.15
2023-02-27T04:16:18.736Z,1027.20
2023-02-27T04:17:13.901Z,1027.21
2023-02-27T04:18:13.996Z,1027.24
2023-02-27T04:19:13.448Z,1027.22
2023-02-27T04:20:13.434Z,1027.26
2023-02-27T04:21:13.430Z,1027.23
2023-02-27T04:22:13.387Z,1027.24
2023-02-27T04:23:13.400Z,1027.26
2023-02-27T04:24:13.497Z,1027.23
2023-02-27T04:25:13.407Z,1027.25
2023-02-27T04:26:13.369Z,1027.27
2023-02-27T04:27:13.347Z,1027.25
2023-02-27T04:28:13.348Z,1027.25
2023-02-27T04:29:13.286Z,1027.30
2023-02-27T04:30:13.201Z,1027.28
2023-02-27T04:31:13.338Z,1027.30
2023-02-27T04:32:13.375Z,1027.29
2023-02-27T04:33:13.656Z,1027.33
2023-02-27T04:34:13.763Z,1027.30
2023-02-27T04:35:14.219Z,1027.27
2023-02-27T04:36:13.482Z,1027.30
2023-02-27T04:37:13.565Z,1027.28
2023-02-27T04:38:13.546Z,1027.25
2023-02-27T04:39:13.543Z,1027.24
2023-02-27T04:40:13.728Z,1027.22
2023-02-27T04:41:13.683Z,1027.26
2023-02-27T04:42:18.593Z,1027.27
2023-02-27T04:43:13.594Z,1027.32
2023-02-27T04:44:13.647Z,1027.34
2023-02-27T04:45:15.341Z,1027.35
2023-02-27T04:46:13.506Z,1027.34
2023-02-27T04:47:13.600Z,1027.40
2023-02-27T04:48:13.677Z,1027.40
2023-02-27T04:49:13.649Z,1027.41
2023-02-27T04:50:13.556Z,1027.38
2023-02-27T04:51:13.680Z,1027.38
2023-02-27T04:52:13.618Z,1027.39
2023-02-27T04:53:14.634Z,1027.43
2023-02-27T04:54:13.594Z,1027.40
2023-02-27T04:55:13.852Z,1027.44
2023-02-27T04:56:13.959Z,1027.44
2023-02-27T04:57:13.090Z,1027.47
2023-02-27T04:58:13.399Z,1027.52
2023-02-27T04:59:13.683Z,1027.50
2023-02-27T05:00:13.745Z,1027.52
2023-02-27T05:01:13.638Z,1027.51
2023-02-27T05:02:15.301Z,1027.51
2023-02-27T05:03:13.822Z,1027.56
2023-02-27T05:04:13.850Z,1027.53
2023-02-27T05:05:14.153Z,1027.51
2023-02-27T05:06:13.400Z,1027.52
2023-02-27T05:07:13.831Z,1027.49
2023-02-27T05:08:13.798Z,1027.50
2023-02-27T05:09:13.952Z,1027.49
2023-02-27T05:10:14.334Z,1027.51
2023-02-27T05:11:13.325Z,1027.50
2023-02-27T05:12:14.579Z,1027.50
2023-02-27T05:13:13.695Z,1027.55
2023-02-27T05:14:13.667Z,1027.57
2023-02-27T05:15:13.592Z,1027.57
2023-02-27T05:16:13.921Z,1027.58
2023-02-27T05:17:13.153Z,1027.59
2023-02-27T05:18:13.276Z,1027.59
2023-02-27T05:19:13.333Z,1027.59
2023-02-27T05:20:13.350Z,1027.56
2023-02-27T05:21:13.488Z,1027.58
2023-02-27T05:22:13.588Z,1027.62
2023-02-27T05:23:13.502Z,1027.64
2023-02-27T05:24:13.652Z,1027.66
2023-02-27T05:25:13.624Z,1027.69
2023-02-27T05:26:13.724Z,1027.66
2023-02-27T05:27:13.873Z,1027.65
2023-02-27T05:28:13.336Z,1027.63
2023-02-27T05:29:13.426Z,1027.62
2023-02-27T05:30:13.386Z,1027.65
2023-02-27T05:31:13.454Z,1027.64
2023-02-27T05:32:13.795Z,1027.63
2023-02-27T05:33:12.733Z,1027.59
2023-02-27T05:34:13.684Z,1027.63
2023-02-27T05:35:13.640Z,1027.57
2023-02-27T05:36:13.583Z,1027.58
2023-02-27T05:37:13.551Z,1027.60
2023-02-27T05:38:13.568Z,1027.58
2023-02-27T05:39:13.700Z,1027.64
2023-02-27T05:40:13.601Z,1027.61
2023-02-27T05:41:13.753Z,1027.62
2023-02-27T05:42:13.975Z,1027.64
2023-02-27T05:43:12.795Z,1027.67
2023-02-27T05:44:14.161Z,1027.70
2023-02-27T05:45:13.306Z,1027.72
2023-02-27T05:46:13.737Z,1027.74
2023-02-27T05:47:13.825Z,1027.74
2023-02-27T05:48:13.965Z,1027.72
2023-02-27T05:49:13.153Z,1027.75
2023-02-27T05:50:13.235Z,1027.74
2023-02-27T05:51:13.177Z,1027.74
2023-02-27T05:52:13.283Z,1027.76
2023-02-27T05:53:13.434Z,1027.76
2023-02-27T05:54:13.381Z,1027.71
2023-02-27T05:55:13.381Z,1027.78
2023-02-27T05:56:13.524Z,1027.79
2023-02-27T05:57:13.601Z,1027.81
2023-02-27T05:58:13.531Z,1027.76
2023-02-27T05:59:13.503Z,1027.76
2023-02-27T06:00:13.817Z,1027.82
2023-02-27T06:01:14.170Z,1027.82
2023-02-27T06:02:13.260Z,1027.82
2023-02-27T06:03:13.580Z,1027.84
2023-02-27T06:04:13.637Z,1027.87
2023-02-27T06:05:25.835Z,1027.91
2023-02-27T06:06:13.949Z,1027.88
2023-02-27T06:07:12.991Z,1027.92
2023-02-27T06:08:13.042Z,1027.96
2023-02-27T06:09:13.452Z,1027.95
2023-02-27T06:10:13.613Z,1027.95
2023-02-27T06:11:13.666Z,1028.00
2023-02-27T06:12:13.589Z,1028.01
2023-02-27T06:13:13.911Z,1028.01
2023-02-27T06:14:12.871Z,1028.03
2023-02-27T06:15:13.712Z,1028.06
2023-02-27T06:16:13.777Z,1028.08
2023-02-27T06:17:13.885Z,1028.07
2023-02-27T06:18:12.907Z,1028.10
2023-02-27T06:19:13.312Z,1028.15
2023-02-27T06:20:13.324Z,1028.11
2023-02-27T06:21:13.378Z,1028.16
2023-02-27T06:22:13.345Z,1028.15
2023-02-27T06:23:13.333Z,1028.15
2023-02-27T06:24:13.648Z,1028.20
2023-02-27T06:25:13.747Z,1028.19
2023-02-27T06:26:14.181Z,1028.25
2023-02-27T06:27:18.433Z,1028.25
2023-02-27T06:28:13.868Z,1028.24
2023-02-27T06:29:14.490Z,1028.26
2023-02-27T06:30:13.743Z,1028.27
2023-02-27T06:31:14.073Z,1028.28
2023-02-27T06:32:13.109Z,1028.27
2023-02-27T06:33:13.500Z,1028.27
2023-02-27T06:34:13.423Z,1028.21
2023-02-27T06:35:13.461Z,1028.24
2023-02-27T06:36:13.423Z,1028.29
2023-02-27T06:37:13.586Z,1028.31
2023-02-27T06:38:13.943Z,1028.31
2023-02-27T06:39:13.159Z,1028.32
2023-02-27T06:40:13.185Z,1028.33
2023-02-27T06:41:13.263Z,1028.34
2023-02-27T06:42:13.269Z,1028.39
2023-02-27T06:43:13.423Z,1028.40
2023-02-27T06:44:13.695Z,1028.38
2023-02-27T06:45:13.689Z,1028.42
2023-02-27T06:46:13.960Z,1028.41
2023-02-27T06:47:13.168Z,1028.40
2023-02-27T06:48:13.340Z,1028.39
2023-02-27T06:49:13.251Z,1028.35
2023-02-27T06:50:13.171Z,1028.34
2023-02-27T06:51:13.291Z,1028.38
2023-02-27T06:52:13.702Z,1028.40
2023-02-27T06:53:13.739Z,1028.39
2023-02-27T06:54:13.879Z,1028.36
2023-02-27T06:55:12.966Z,1028.41
2023-02-27T06:56:13.098Z,1028.39
2023-02-27T06:57:13.224Z,1028.39
2023-02-27T06:58:13.268Z,1028.44
2023-02-27T06:59:13.221Z,1028.43
2023-02-27T07:00:13.456Z,1028.45
2023-02-27T07:01:13.704Z,1028.45
2023-02-27T07:02:14.351Z,1028.48
2023-02-27T07:03:13.268Z,1028.49
2023-02-27T07:04:13.171Z,1028.50
2023-02-27T07:05:13.121Z,1028.53
2023-02-27T07:06:13.429Z,1028.53
2023-02-27T07:07:34.078Z,1028.58
2023-02-27T07:08:13.269Z,1028.58
2023-02-27T07:09:13.359Z,1028.56
2023-02-27T07:10:13.290Z,1028.56
2023-02-27T07:11:13.337Z,1028.60
2023-02-27T07:12:13.326Z,1028.62
2023-02-27T07:13:16.082Z,1028.61
2023-02-27T07:14:13.230Z,1028.64
2023-02-27T07:15:13.473Z,1028.66
2023-02-27T07:16:13.755Z,1028.65
2023-02-27T07:17:14.429Z,1028.66
2023-02-27T07:18:13.871Z,1028.68
2023-02-27T07:19:13.278Z,1028.68
2023-02-27T07:20:13.666Z,1028.66
2023-02-27T07:21:14.373Z,1028.66
2023-02-27T07:22:13.578Z,1028.71
2023-02-27T07:23:13.797Z,1028.71
2023-02-27T07:24:14.676Z,1028.68
2023-02-27T07:25:13.979Z,1028.69
2023-02-27T07:26:13.262Z,1028.73
2023-02-27T07:27:13.452Z,1028.72
2023-02-27T07:28:13.919Z,1028.81
2023-02-27T07:29:13.134Z,1028.81
2023-02-27T07:30:13.459Z,1028.78
2023-02-27T07:31:13.974Z,1028.80
2023-02-27T07:32:13.254Z,1028.78
2023-02-27T07:33:13.636Z,1028.80
2023-02-27T07:34:13.915Z,1028.80
2023-02-27T07:35:13.363Z,1028.82
2023-02-27T07:36:13.762Z,1028.83
2023-02-27T07:37:13.770Z,1028.83
2023-02-27T07:38:14.066Z,1028.82
2023-02-27T07:39:13.386Z,1028.82
2023-02-27T07:40:13.758Z,1028.80
2023-02-27T07:41:44.115Z,1028.80
2023-02-27T07:42:54.719Z,1028.81
2023-02-27T07:43:14.328Z,1028.75
2023-02-27T07:44:13.917Z,1028.80
2023-02-27T07:45:14.682Z,1028.83
2023-02-27T07:46:14.039Z,1028.81
2023-02-27T07:47:13.680Z,1028.82
2023-02-27T07:48:15.216Z,1028.83
2023-02-27T07:49:13.793Z,1028.79
2023-02-27T07:50:16.032Z,1028.82
2023-02-27T07:51:13.437Z,1028.76
2023-02-27T07:52:14.387Z,1028.77
2023-02-27T07:53:13.827Z,1028.80
2023-02-27T07:54:14.699Z,1028.82
2023-02-27T07:55:14.749Z,1028.83
2023-02-27T07:56:14.718Z,1028.81
2023-02-27T07:57:14.306Z,1028.84
2023-02-27T07:58:19.078Z,1028.89
2023-02-27T07:59:14.263Z,1028.91
2023-02-27T08:00:13.879Z,1028.85
2023-02-27T08:01:14.526Z,1028.88
2023-02-27T08:02:13.865Z,1028.89
2023-02-27T08:03:14.089Z,1028.86
2023-02-27T08:04:13.170Z,1028.86
2023-02-27T08:05:13.266Z,1028.88
2023-02-27T08:06:13.538Z,1028.87
2023-02-27T08:07:46.048Z,1028.90
2023-02-27T08:08:13.251Z,1028.89
2023-02-27T08:09:13.405Z,1028.90
2023-02-27T08:10:13.446Z,1028.91
2023-02-27T08:11:13.543Z,1028.92
2023-02-27T08:12:19.179Z,1028.91
2023-02-27T08:13:13.328Z,1028.93
2023-02-27T08:14:19.075Z,1028.97
2023-02-27T08:15:14.289Z,1028.97
2023-02-27T08:16:13.456Z,1028.94
2023-02-27T08:17:13.742Z,1029.00
2023-02-27T08:18:14.024Z,1028.93
2023-02-27T08:19:13.178Z,1028.94
2023-02-27T08:20:34.602Z,1028.95
2023-02-27T08:21:13.977Z,1028.97
2023-02-27T08:22:13.009Z,1028.92
2023-02-27T08:23:13.237Z,1028.95
2023-02-27T08:24:13.409Z,1028.98
2023-02-27T08:25:13.827Z,1028.98
2023-02-27T08:26:14.724Z,1028.93
2023-02-27T08:27:14.052Z,1028.96
2023-02-27T08:28:13.627Z,1028.97
2023-02-27T08:29:16.111Z,1028.95
2023-02-27T08:30:13.202Z,1028.97
2023-02-27T08:31:13.812Z,1028.97
2023-02-27T08:32:14.315Z,1028.97
2023-02-27T08:33:13.437Z,1029.00
2023-02-27T08:34:13.606Z,1029.00
2023-02-27T08:35:13.782Z,1028.98
2023-02-27T08:36:13.861Z,1029.02
2023-02-27T08:37:13.956Z,1029.06
2023-02-27T08:38:13.016Z,1029.02
2023-02-27T08:39:13.027Z,1028.99
2023-02-27T08:40:22.240Z,1029.01
2023-02-27T08:41:13.483Z,1028.98
2023-02-27T08:42:13.729Z,1029.02
2023-02-27T08:43:13.721Z,1029.09
2023-02-27T08:44:53.104Z,1029.05
2023-02-27T08:45:13.462Z,1029.08
2023-02-27T08:46:13.511Z,1029.08
2023-02-27T08:47:14.050Z,1029.07
2023-02-27T08:48:13.093Z,1029.10
2023-02-27T08:49:13.205Z,1029.15
2023-02-27T08:50:13.257Z,1029.12
2023-02-27T08:51:45.650Z,1029.08
2023-02-27T08:52:13.743Z,1029.12
2023-02-27T08:53:13.887Z,1029.07
2023-02-27T08:54:13.088Z,1029.09
2023-02-27T08:55:13.567Z,1029.10
2023-02-27T08:56:14.375Z,1029.10
2023-02-27T08:57:13.282Z,1029.10
2023-02-27T08:58:18.272Z,1029.13
2023-02-27T09:00:13.280Z,1029.12
2023-02-27T09:01:13.840Z,1029.17
2023-02-27T09:02:13.827Z,1029.13
2023-02-27T09:03:12.855Z,1029.12
2023-02-27T09:04:13.797Z,1029.17
2023-02-27T09:05:39.251Z,1029.20
2023-02-27T09:06:13.612Z,1029.18
2023-02-27T09:07:13.916Z,1029.17
2023-02-27T09:08:13.145Z,1029.16
2023-02-27T09:09:13.174Z,1029.18
2023-02-27T09:10:13.263Z,1029.17
2023-02-27T09:11:13.600Z,1029.14
2023-02-27T09:12:13.669Z,1029.13
2023-02-27T09:13:13.794Z,1029.06
2023-02-27T09:14:13.762Z,1029.07
2023-02-27T09:15:13.734Z,1029.10
2023-02-27T09:16:13.768Z,1029.05
2023-02-27T09:17:13.924Z,1029.08
2023-02-27T09:18:13.101Z,1029.04
2023-02-27T09:19:13.110Z,1029.08
2023-02-27T09:20:22.545Z,1029.07
2023-02-27T09:21:13.688Z,1029.04
2023-02-27T09:22:13.560Z,1029.06
2023-02-27T09:23:13.407Z,1029.05
2023-02-27T09:24:19.744Z,1029.08
2023-02-27T09:25:13.914Z,1029.03
2023-02-27T09:26:12.822Z,1029.07
2023-02-27T09:27:14.068Z,1029.05
2023-02-27T09:28:13.002Z,1029.00
2023-02-27T09:29:12.954Z,1029.00
2023-02-27T09:30:13.137Z,1029.02
2023-02-27T09:31:13.356Z,1029.02
2023-02-27T09:32:13.632Z,1029.04
2023-02-27T09:33:13.725Z,1029.05
2023-02-27T09:34:15.927Z,1029.02
2023-02-27T09:35:13.187Z,1029.03
2023-02-27T09:36:13.283Z,1029.04
2023-02-27T09:37:13.287Z,1029.03
2023-02-27T09:38:13.913Z,1029.01
2023-02-27T09:39:12.741Z,1029.02
2023-02-27T09:40:14.017Z,1029.04
2023-02-27T09:41:13.427Z,1029.00
2023-02-27T09:42:13.654Z,1029.04
2023-02-27T09:43:14.019Z,1028.99
2023-02-27T09:44:13.305Z,1028.97
2023-02-27T09:45:13.566Z,1029.01
2023-02-27T09:46:13.493Z,1028.98
2023-02-27T09:47:13.766Z,1029.01
2023-02-27T09:48:13.820Z,1029.04
2023-02-27T09:49:13.702Z,1029.04
2023-02-27T09:50:13.698Z,1029.04
2023-02-27T09:51:13.634Z,1029.04
2023-02-27T09:52:13.682Z,1029.07
2023-02-27T09:53:13.651Z,1029.10
2023-02-27T09:54:18.838Z,1029.07
2023-02-27T09:55:13.928Z,1029.06
2023-02-27T09:56:12.851Z,1029.09
2023-02-27T09:57:13.809Z,1029.05
2023-02-27T09:58:13.863Z,1029.04
2023-02-27T09:59:14.046Z,1029.03
2023-02-27T10:00:13.195Z,1029.02
2023-02-27T10:01:13.240Z,1029.02
2023-02-27T10:02:13.174Z,1029.02
2023-02-27T10:03:13.564Z,1029.00
2023-02-27T10:04:14.003Z,1029.01
2023-02-27T10:05:13.081Z,1029.00
2023-02-27T10:06:13.140Z,1029.03
2023-02-27T10:07:13.099Z,1029.04
2023-02-27T10:08:13.282Z,1029.03
2023-02-27T10:09:13.157Z,1029.04
2023-02-27T10:10:13.090Z,1029.05
2023-02-27T10:11:13.958Z,1029.08
2023-02-27T10:12:12.919Z,1029.10
2023-02-27T10:13:12.973Z,1029.12
2023-02-27T10:14:12.980Z,1029.05
2023-02-27T10:15:12.956Z,1029.09
2023-02-27T10:16:14.255Z,1029.13
2023-02-27T10:17:19.144Z,1029.03
2023-02-27T10:18:25.525Z,1029.14
2023-02-27T10:20:13.502Z,1029.11
2023-02-27T10:21:13.543Z,1029.12
2023-02-27T10:22:13.907Z,1029.15
2023-02-27T10:23:13.089Z,1029.18
2023-02-27T10:24:18.178Z,1029.15
2023-02-27T10:25:29.885Z,1029.14
2023-02-27T10:26:13.993Z,1029.14
2023-02-27T10:27:13.120Z,1029.18
2023-02-27T10:28:13.157Z,1029.14
2023-02-27T10:29:13.092Z,1029.11
2023-02-27T10:30:20.239Z,1029.18
2023-02-27T10:31:13.932Z,1029.20
2023-02-27T10:32:12.987Z,1029.22
2023-02-27T10:33:13.099Z,1029.30
2023-02-27T10:34:13.383Z,1029.24
2023-02-27T10:35:13.329Z,1029.24
2023-02-27T10:36:23.571Z,1029.21
2023-02-27T10:37:13.027Z,1029.25
2023-02-27T10:38:13.842Z,1029.28
2023-02-27T10:39:13.982Z,1029.26
2023-02-27T10:40:13.145Z,1029.29
2023-02-27T10:41:13.205Z,1029.26
2023-02-27T10:42:13.281Z,1029.25
2023-02-27T10:43:13.385Z,1029.24
2023-02-27T10:44:13.268Z,1029.32
2023-02-27T10:45:13.285Z,1029.24
2023-02-27T10:46:13.372Z,1029.22
2023-02-27T10:47:13.394Z,1029.21
2023-02-27T10:48:13.325Z,1029.21
2023-02-27T10:49:13.288Z,1029.25
2023-02-27T10:50:13.208Z,1029.22
2023-02-27T10:51:13.271Z,1029.22
2023-02-27T10:52:13.306Z,1029.16
2023-02-27T10:53:13.552Z,1029.24
2023-02-27T10:54:13.581Z,1029.22
2023-02-27T10:55:13.798Z,1029.13
2023-02-27T10:56:13.960Z,1029.12
2023-02-27T10:57:12.941Z,1029.16
2023-02-27T10:58:12.894Z,1029.12
2023-02-27T10:59:13.167Z,1029.12
2023-02-27T11:00:18.202Z,1029.06
2023-02-27T11:01:13.193Z,1029.14
2023-02-27T11:02:13.159Z,1029.10
2023-02-27T11:03:13.087Z,1029.09
2023-02-27T11:04:13.620Z,1029.03
2023-02-27T11:05:13.633Z,1029.08
2023-02-27T11:06:13.535Z,1029.03
2023-02-27T11:07:13.708Z,1029.06
2023-02-27T11:08:13.974Z,1029.06
2023-02-27T11:09:13.014Z,1029.04
2023-02-27T11:10:12.919Z,1029.01
2023-02-27T11:11:12.907Z,1029.01
2023-02-27T11:12:13.292Z,1028.99
2023-02-27T11:13:13.468Z,1029.01
2023-02-27T11:14:13.500Z,1028.96
2023-02-27T11:15:13.600Z,1028.96
2023-02-27T11:16:13.625Z,1028.89
2023-02-27T11:17:13.514Z,1028.89
2023-02-27T11:18:13.596Z,1028.82
2023-02-27T11:19:14.522Z,1028.84
2023-02-27T11:20:13.665Z,1028.93
2023-02-27T11:21:13.992Z,1028.87
2023-02-27T11:22:13.353Z,1028.80
2023-02-27T11:23:47.139Z,1028.79
2023-02-27T11:24:13.266Z,1028.75
2023-02-27T11:25:13.359Z,1028.84
2023-02-27T11:26:13.382Z,1028.78
2023-02-27T11:27:13.447Z,1028.83
2023-02-27T11:28:13.645Z,1028.81
2023-02-27T11:29:13.591Z,1028.83
2023-02-27T11:30:14.590Z,1028.79
2023-02-27T11:31:13.832Z,1028.79
2023-02-27T11:32:13.948Z,1028.82
2023-02-27T11:33:12.957Z,1028.79
2023-02-27T11:34:13.098Z,1028.74
2023-02-27T11:35:13.244Z,1028.76
2023-02-27T11:36:13.697Z,1028.80
2023-02-27T11:37:13.102Z,1028.75
2023-02-27T11:38:13.292Z,1028.72
2023-02-27T11:39:13.313Z,1028.71
2023-02-27T11:40:13.230Z,1028.72
2023-02-27T11:41:13.360Z,1028.69
2023-02-27T11:42:13.376Z,1028.69
2023-02-27T11:43:13.537Z,1028.75
2023-02-27T11:44:13.786Z,1028.68
2023-02-27T11:45:13.752Z,1028.64
2023-02-27T11:46:42.300Z,1028.61
2023-02-27T11:47:13.487Z,1028.57
2023-02-27T11:48:13.442Z,1028.63
2023-02-27T11:49:13.718Z,1028.68
2023-02-27T11:50:13.640Z,1028.69
2023-02-27T11:51:13.864Z,1028.67
2023-02-27T11:52:19.004Z,1028.69
2023-02-27T11:53:12.913Z,1028.66
2023-02-27T11:54:12.906Z,1028.72
2023-02-27T11:55:12.874Z,1028.73
2023-02-27T11:56:13.804Z,1028.71
2023-02-27T11:57:35.193Z,1028.63
2023-02-27T11:58:13.997Z,1028.63
2023-02-27T11:59:12.992Z,1028.62
2023-02-27T12:00:14.551Z,1028.66
2023-02-27T12:01:13.996Z,1028.63
2023-02-27T12:02:12.939Z,1028.63
2023-02-27T12:03:13.148Z,1028.66
2023-02-27T12:04:13.131Z,1028.67
2023-02-27T12:05:13.318Z,1028.63
2023-02-27T12:06:13.685Z,1028.55
2023-02-27T12:07:13.974Z,1028.60